Time;durP1;ratioP1;P1;durP2;ratioP2;P2;SDS_P1;SDS_P2;PMS_P1;PMS_P2;Temp;Humidity;BMP_temperature;BMP_pressure;BME280_temperature;BME280_humidity;BME280_pressure;Samples;Min_cycle;Max_cycle;Signal;HPM_P1;HPM_P2
2023/07/23 00:01:42;;;;;;;;;;;17.80;84.60;;;;;;4938937;28;19965;-90
2023/07/23 00:04:08;;;;;;;;;;;17.80;84.50;;;;;;4939879;28;19963;-89
2023/07/23 00:06:33;;;;;;;;;;;17.80;84.60;;;;;;4935792;28;19921;-88
2023/07/23 00:08:59;;;;;;;;;;;17.70;84.60;;;;;;4937298;28;19911;-89
2023/07/23 00:11:24;;;;;;;;;;;17.60;84.80;;;;;;4953151;29;19910;-89
2023/07/23 00:13:50;;;;;;;;;;;17.70;84.80;;;;;;4938286;28;19929;-89
2023/07/23 00:16:15;;;;;;;;;;;17.80;84.90;;;;;;4954486;28;20368;-88
2023/07/23 00:18:40;;;;;;;;;;;17.80;84.50;;;;;;4937298;28;19910;-89
2023/07/23 00:21:06;;;;;;;;;;;17.80;84.50;;;;;;4932548;28;20006;-89
2023/07/23 00:23:31;;;;;;;;;;;17.70;84.30;;;;;;4952878;28;19954;-88
2023/07/23 00:25:57;;;;;;;;;;;17.60;84.20;;;;;;4936472;28;20376;-88
2023/07/23 00:28:22;;;;;;;;;;;17.70;84.10;;;;;;4939901;28;19914;-89
2023/07/23 00:30:48;;;;;;;;;;;17.70;83.80;;;;;;4971740;28;19941;-89
2023/07/23 00:33:14;;;;;;;;;;;17.60;83.80;;;;;;4949701;28;20005;-89
2023/07/23 00:35:42;;;;;;;;;;;17.60;84.10;;;;;;4955769;28;19995;-89
2023/07/23 00:38:07;;;;;;;;;;;17.50;84.20;;;;;;4936501;28;19914;-89
2023/07/23 00:40:33;;;;;;;;;;;17.50;84.40;;;;;;4953704;28;19915;-89
2023/07/23 00:43:01;;;;;;;;;;;17.50;84.60;;;;;;4953606;29;20479;-89
2023/07/23 00:45:27;;;;;;;;;;;17.50;84.60;;;;;;4938506;28;20040;-89
2023/07/23 00:47:52;;;;;;;;;;;17.40;84.50;;;;;;4936586;29;19945;-89
2023/07/23 00:50:18;;;;;;;;;;;17.40;84.60;;;;;;4937701;28;20405;-89
2023/07/23 00:52:43;;;;;;;;;;;17.50;84.50;;;;;;4937030;28;19918;-89
2023/07/23 00:55:09;;;;;;;;;;;17.50;84.30;;;;;;4936397;28;19936;-89
2023/07/23 00:57:35;;;;;;;;;;;17.50;84.40;;;;;;4936472;28;19945;-88
2023/07/23 01:00:00;;;;;;;;;;;17.50;84.20;;;;;;4935432;28;19921;-89
2023/07/23 01:02:26;;;;;;;;;;;17.40;83.80;;;;;;4936472;28;19953;-89
2023/07/23 01:04:52;;;;;;;;;;;17.50;83.60;;;;;;4936068;28;19929;-89
2023/07/23 01:07:18;;;;;;;;;;;17.50;83.70;;;;;;4936143;29;19911;-87
2023/07/23 01:09:44;;;;;;;;;;;17.40;83.20;;;;;;4936938;29;20350;-89
2023/07/23 01:12:09;;;;;;;;;;;17.50;82.60;;;;;;4933704;29;19922;-89
2023/07/23 01:14:35;;;;;;;;;;;17.40;82.70;;;;;;4947384;28;19914;-89
2023/07/23 01:17:02;;;;;;;;;;;17.40;82.80;;;;;;4937639;28;19911;-88
2023/07/23 01:19:27;;;;;;;;;;;17.30;82.80;;;;;;4936582;29;19960;-89
2023/07/23 01:21:56;;;;;;;;;;;17.40;82.80;;;;;;4955922;29;19910;-88
2023/07/23 01:24:21;;;;;;;;;;;17.30;83.00;;;;;;4936763;28;19925;-88
2023/07/23 01:26:46;;;;;;;;;;;17.20;83.10;;;;;;4953578;28;20378;-89
2023/07/23 01:29:12;;;;;;;;;;;17.30;82.90;;;;;;4935532;28;19918;-88
2023/07/23 01:31:37;;;;;;;;;;;17.30;82.90;;;;;;4943283;28;19925;-88
2023/07/23 01:34:04;;;;;;;;;;;17.20;82.80;;;;;;4947519;29;20001;-89
2023/07/23 01:36:30;;;;;;;;;;;17.20;82.70;;;;;;4940785;29;19910;-88
2023/07/23 01:38:55;;;;;;;;;;;17.20;82.80;;;;;;4955108;29;19919;-89
2023/07/23 01:41:21;;;;;;;;;;;17.10;82.90;;;;;;4936607;28;19958;-89
2023/07/23 01:43:46;;;;;;;;;;;17.20;83.40;;;;;;4951787;28;19923;-89
2023/07/23 01:46:12;;;;;;;;;;;17.20;83.30;;;;;;4953672;28;19914;-89
2023/07/23 01:48:37;;;;;;;;;;;17.20;82.90;;;;;;4936853;29;19917;-88
2023/07/23 01:51:04;;;;;;;;;;;17.20;82.80;;;;;;4932642;28;19998;-88
2023/07/23 01:53:29;;;;;;;;;;;17.20;83.20;;;;;;4951090;28;19915;-89
2023/07/23 01:55:56;;;;;;;;;;;17.10;83.00;;;;;;4938808;28;19949;-88
2023/07/23 01:58:22;;;;;;;;;;;17.10;83.30;;;;;;4951507;28;19950;-89
2023/07/23 02:00:47;;;;;;;;;;;17.10;83.50;;;;;;4950931;28;19914;-89
2023/07/23 02:03:13;;;;;;;;;;;17.10;83.50;;;;;;4953229;28;19915;-89
2023/07/23 02:05:38;;;;;;;;;;;17.20;83.00;;;;;;4934164;28;20014;-89
2023/07/23 02:08:04;;;;;;;;;;;17.20;82.60;;;;;;4935241;28;19946;-88
2023/07/23 02:10:29;;;;;;;;;;;17.20;82.00;;;;;;4950855;28;19945;-89
2023/07/23 02:12:55;;;;;;;;;;;17.30;81.70;;;;;;4952394;28;20248;-89
2023/07/23 02:15:21;;;;;;;;;;;17.20;81.80;;;;;;4935399;28;20394;-88
2023/07/23 02:17:46;;;;;;;;;;;17.20;80.80;;;;;;4952697;28;19911;-89
2023/07/23 02:20:12;;;;;;;;;;;17.20;80.70;;;;;;4952229;28;19921;-88
2023/07/23 02:22:37;;;;;;;;;;;17.30;81.00;;;;;;4952833;28;19921;-88
2023/07/23 02:25:03;;;;;;;;;;;17.20;80.80;;;;;;4935896;28;19918;-89
2023/07/23 02:27:28;;;;;;;;;;;17.20;80.70;;;;;;4933884;28;20315;-88
2023/07/23 02:29:54;;;;;;;;;;;17.20;80.30;;;;;;4934974;28;19961;-88
2023/07/23 02:32:19;;;;;;;;;;;17.20;80.10;;;;;;4939913;28;19919;-89
2023/07/23 02:34:46;;;;;;;;;;;17.30;79.30;;;;;;4933770;28;19921;-88
2023/07/23 02:37:11;;;;;;;;;;;17.30;77.30;;;;;;4935271;28;20352;-89
2023/07/23 02:39:37;;;;;;;;;;;17.30;78.70;;;;;;4933959;28;19964;-89
2023/07/23 02:42:02;;;;;;;;;;;17.30;77.20;;;;;;4931483;28;19915;-89
2023/07/23 02:44:28;;;;;;;;;;;17.40;76.20;;;;;;4945859;28;20423;-88
2023/07/23 02:46:53;;;;;;;;;;;17.50;75.40;;;;;;4933995;28;19923;-88
2023/07/23 02:49:18;;;;;;;;;;;17.50;76.80;;;;;;4951973;28;20354;-88
2023/07/23 02:51:44;;;;;;;;;;;17.50;76.20;;;;;;4952102;29;19910;-88
2023/07/23 02:54:10;;;;;;;;;;;17.50;77.10;;;;;;4934902;28;19961;-88
2023/07/23 02:56:36;;;;;;;;;;;17.50;76.20;;;;;;4933791;28;19922;-89
2023/07/23 02:59:03;;;;;;;;;;;17.50;76.50;;;;;;4933667;28;19922;-89
2023/07/23 03:01:29;;;;;;;;;;;17.60;76.10;;;;;;4931670;28;19915;-88
2023/07/23 03:03:54;;;;;;;;;;;17.60;75.50;;;;;;4951243;28;19915;-88
2023/07/23 03:06:20;;;;;;;;;;;17.60;75.20;;;;;;4934913;28;19917;-89
2023/07/23 03:08:45;;;;;;;;;;;17.60;75.20;;;;;;4934552;28;19964;-88
2023/07/23 03:11:11;;;;;;;;;;;17.50;76.00;;;;;;4934914;28;19976;-88
2023/07/23 03:13:36;;;;;;;;;;;17.50;76.20;;;;;;4934409;29;19911;-89
2023/07/23 03:16:02;;;;;;;;;;;17.50;73.10;;;;;;4945092;28;19919;-89
2023/07/23 03:18:28;;;;;;;;;;;17.60;72.40;;;;;;4934102;28;20390;-88
2023/07/23 03:20:54;;;;;;;;;;;17.70;71.50;;;;;;4948886;28;19919;-89
2023/07/23 03:23:19;;;;;;;;;;;17.70;71.00;;;;;;4949085;28;19919;-89
2023/07/23 03:25:45;;;;;;;;;;;17.70;72.50;;;;;;4954591;29;19934;-88
2023/07/23 03:31:03;;;;;;;;;;;17.80;70.20;;;;;;5011340;28;19917;-83
2023/07/23 03:33:30;;;;;;;;;;;17.80;69.40;;;;;;5025369;28;19928;-83
2023/07/23 03:35:56;;;;;;;;;;;18.00;69.00;;;;;;5006289;28;19916;-81
2023/07/23 03:38:21;;;;;;;;;;;18.00;69.00;;;;;;4990531;28;19910;-83
2023/07/23 03:40:47;;;;;;;;;;;18.00;67.60;;;;;;5013388;28;19917;-83
2023/07/23 03:43:12;;;;;;;;;;;18.10;69.00;;;;;;5015806;28;19917;-83
2023/07/23 03:45:37;;;;;;;;;;;18.10;68.00;;;;;;4991438;28;19928;-82
2023/07/23 03:48:04;;;;;;;;;;;18.10;66.80;;;;;;4991703;28;19914;-83
2023/07/23 03:50:30;;;;;;;;;;;18.20;68.60;;;;;;4979013;28;19914;-83
2023/07/23 03:52:55;;;;;;;;;;;18.10;68.70;;;;;;5011589;28;19910;-83
2023/07/23 03:55:21;;;;;;;;;;;18.10;67.00;;;;;;5010204;28;19909;-83
2023/07/23 03:57:47;;;;;;;;;;;18.20;66.00;;;;;;5003015;28;19910;-83
2023/07/23 04:00:12;;;;;;;;;;;18.20;66.60;;;;;;5002797;28;19966;-82
2023/07/23 04:02:38;;;;;;;;;;;18.30;66.00;;;;;;4978280;28;20383;-84
2023/07/23 04:05:03;;;;;;;;;;;18.40;65.20;;;;;;4994716;28;19972;-83
2023/07/23 04:07:29;;;;;;;;;;;18.30;65.70;;;;;;5010710;28;20374;-83
2023/07/23 04:09:54;;;;;;;;;;;18.30;65.90;;;;;;5000845;28;19918;-83
2023/07/23 04:12:21;;;;;;;;;;;18.30;67.30;;;;;;4981036;28;19917;-82
2023/07/23 04:14:46;;;;;;;;;;;18.40;65.50;;;;;;4981457;28;19918;-83
2023/07/23 04:17:12;;;;;;;;;;;18.40;64.80;;;;;;5001730;28;19914;-83
2023/07/23 04:19:37;;;;;;;;;;;18.50;64.80;;;;;;4989232;28;19914;-83
2023/07/23 04:22:03;;;;;;;;;;;18.60;64.20;;;;;;5017448;28;19902;-81
2023/07/23 04:24:29;;;;;;;;;;;18.60;64.40;;;;;;4999523;28;20370;-81
2023/07/23 04:26:54;;;;;;;;;;;18.60;64.30;;;;;;4995366;28;19914;-82
2023/07/23 04:29:19;;;;;;;;;;;18.60;64.10;;;;;;4987415;28;20052;-83
2023/07/23 04:31:45;;;;;;;;;;;18.70;64.30;;;;;;4985217;28;19939;-83
2023/07/23 04:34:11;;;;;;;;;;;18.70;64.30;;;;;;4999350;28;19917;-83
2023/07/23 04:36:36;;;;;;;;;;;18.60;63.60;;;;;;5008927;28;19956;-82
2023/07/23 04:39:03;;;;;;;;;;;18.60;63.90;;;;;;5002104;28;20133;-83
2023/07/23 04:41:29;;;;;;;;;;;18.60;64.40;;;;;;5009944;28;19920;-84
2023/07/23 04:43:54;;;;;;;;;;;18.60;65.00;;;;;;4994023;28;20509;-83
2023/07/23 04:46:20;;;;;;;;;;;18.60;64.50;;;;;;4991423;28;19925;-83
2023/07/23 04:48:45;;;;;;;;;;;18.60;63.70;;;;;;4999646;28;19914;-83
2023/07/23 04:51:11;;;;;;;;;;;18.80;63.30;;;;;;4998518;28;19913;-83
2023/07/23 04:53:36;;;;;;;;;;;18.70;64.60;;;;;;4979555;28;19964;-83
2023/07/23 04:56:03;;;;;;;;;;;18.70;63.30;;;;;;5002982;28;19910;-83
2023/07/23 04:58:28;;;;;;;;;;;18.70;64.70;;;;;;4995231;28;19928;-83
2023/07/23 05:00:55;;;;;;;;;;;18.70;63.60;;;;;;4979192;28;19910;-83
2023/07/23 05:03:21;;;;;;;;;;;18.80;62.90;;;;;;4999820;28;20401;-82
2023/07/23 05:05:47;;;;;;;;;;;18.80;63.70;;;;;;5003581;28;19914;-83
2023/07/23 05:08:13;;;;;;;;;;;18.90;62.70;;;;;;5000140;28;19914;-83
2023/07/23 05:10:38;;;;;;;;;;;19.00;62.20;;;;;;5016537;28;19920;-83
2023/07/23 05:13:04;;;;;;;;;;;19.00;61.20;;;;;;5015070;28;20000;-84
2023/07/23 05:15:29;;;;;;;;;;;19.00;62.00;;;;;;4988490;28;19910;-83
2023/07/23 05:17:55;;;;;;;;;;;19.10;61.60;;;;;;4996107;28;19914;-84
2023/07/23 05:20:21;;;;;;;;;;;19.10;61.10;;;;;;5003031;28;20267;-84
2023/07/23 05:22:46;;;;;;;;;;;19.10;61.20;;;;;;4993704;28;20345;-83
2023/07/23 05:25:11;;;;;;;;;;;19.20;60.60;;;;;;5007550;28;20297;-82
2023/07/23 05:27:37;;;;;;;;;;;19.40;60.80;;;;;;4991324;28;19963;-82
2023/07/23 05:30:03;;;;;;;;;;;19.30;60.40;;;;;;4978053;28;19913;-84
2023/07/23 05:32:29;;;;;;;;;;;19.40;60.70;;;;;;4978092;28;19917;-83
2023/07/23 05:34:55;;;;;;;;;;;19.40;60.80;;;;;;5003795;28;20323;-83
2023/07/23 05:37:20;;;;;;;;;;;19.40;60.20;;;;;;5006319;28;20000;-83
2023/07/23 05:39:48;;;;;;;;;;;19.50;60.30;;;;;;4977260;28;19917;-83
2023/07/23 05:42:13;;;;;;;;;;;19.60;59.80;;;;;;5006832;28;20263;-83
2023/07/23 05:44:38;;;;;;;;;;;19.60;59.80;;;;;;4987445;28;20032;-83
2023/07/23 05:47:04;;;;;;;;;;;19.60;59.60;;;;;;4976651;28;20329;-82
2023/07/23 05:49:29;;;;;;;;;;;19.60;58.60;;;;;;4981483;28;20345;-83
2023/07/23 05:51:57;;;;;;;;;;;19.70;58.60;;;;;;5015898;28;19910;-83
2023/07/23 05:54:24;;;;;;;;;;;19.80;58.40;;;;;;5015041;28;19909;-83
2023/07/23 05:56:49;;;;;;;;;;;19.70;58.30;;;;;;5013547;22;19996;-80
2023/07/23 05:59:15;;;;;;;;;;;19.70;58.50;;;;;;4991983;28;20402;-81
2023/07/23 06:01:40;;;;;;;;;;;19.70;58.20;;;;;;5009058;28;19918;-80
2023/07/23 06:04:06;;;;;;;;;;;19.70;57.60;;;;;;4994021;28;19921;-80
2023/07/23 06:06:31;;;;;;;;;;;19.70;58.30;;;;;;5013444;28;19917;-80
2023/07/23 06:08:57;;;;;;;;;;;19.70;57.90;;;;;;4969510;28;19918;-79
2023/07/23 06:11:22;;;;;;;;;;;19.70;58.00;;;;;;4991888;28;20021;-78
2023/07/23 06:13:48;;;;;;;;;;;19.70;58.10;;;;;;4984708;28;20492;-81
2023/07/23 06:16:13;;;;;;;;;;;19.70;58.20;;;;;;4978407;28;19914;-78
2023/07/23 06:18:39;;;;;;;;;;;19.80;58.50;;;;;;4974263;28;20056;-80
2023/07/23 06:21:04;;;;;;;;;;;19.80;58.30;;;;;;5007665;28;19914;-79
2023/07/23 06:23:33;;;;;;;;;;;19.90;58.00;;;;;;4992294;28;20005;-79
2023/07/23 06:25:59;;;;;;;;;;;19.90;57.70;;;;;;4981176;28;19925;-80
2023/07/23 06:28:24;;;;;;;;;;;20.00;58.00;;;;;;4986068;28;19917;-79
2023/07/23 06:30:50;;;;;;;;;;;20.00;57.80;;;;;;4989447;28;20274;-81
2023/07/23 06:33:15;;;;;;;;;;;20.00;57.20;;;;;;4980385;28;19949;-79
2023/07/23 06:35:44;;;;;;;;;;;20.10;57.50;;;;;;4983263;28;19917;-79
2023/07/23 06:38:09;;;;;;;;;;;20.20;57.30;;;;;;4967424;28;20434;-80
2023/07/23 06:40:35;;;;;;;;;;;20.30;57.50;;;;;;4967043;28;19913;-79
2023/07/23 06:43:01;;;;;;;;;;;20.40;56.90;;;;;;4974847;28;20043;-81
2023/07/23 06:45:26;;;;;;;;;;;20.40;56.70;;;;;;4983134;28;19918;-80
2023/07/23 06:47:51;;;;;;;;;;;20.50;56.60;;;;;;4989243;28;20286;-80
2023/07/23 06:50:20;;;;;;;;;;;20.40;57.00;;;;;;4979043;28;19910;-81
2023/07/23 06:52:47;;;;;;;;;;;20.50;56.90;;;;;;4988661;28;19977;-80
2023/07/23 06:55:12;;;;;;;;;;;20.60;56.80;;;;;;4990827;28;19926;-81
2023/07/23 06:57:38;;;;;;;;;;;20.60;56.70;;;;;;4988716;28;20296;-80
2023/07/23 07:00:05;;;;;;;;;;;20.70;56.20;;;;;;5006831;28;19918;-78
2023/07/23 07:02:30;;;;;;;;;;;20.80;55.90;;;;;;5004671;28;19939;-78
2023/07/23 07:04:55;;;;;;;;;;;20.80;56.00;;;;;;5009852;28;19917;-79
2023/07/23 07:07:21;;;;;;;;;;;20.80;56.00;;;;;;5002147;28;19947;-78
2023/07/23 07:09:46;;;;;;;;;;;20.70;56.20;;;;;;4998949;28;20040;-81
2023/07/23 07:12:12;;;;;;;;;;;20.70;55.90;;;;;;4987421;28;19921;-79
2023/07/23 07:14:37;;;;;;;;;;;20.60;56.20;;;;;;4980150;28;19920;-79
2023/07/23 07:17:03;;;;;;;;;;;20.70;56.00;;;;;;4989189;28;20153;-80
2023/07/23 07:19:28;;;;;;;;;;;20.60;56.00;;;;;;4989649;28;20159;-80
2023/07/23 07:21:54;;;;;;;;;;;20.50;56.80;;;;;;4987989;28;19925;-79
2023/07/23 07:24:19;;;;;;;;;;;20.50;57.20;;;;;;4969499;28;19918;-80
2023/07/23 07:26:45;;;;;;;;;;;20.60;57.30;;;;;;4969598;28;20011;-79
2023/07/23 07:29:10;;;;;;;;;;;20.60;58.20;;;;;;4990283;28;19921;-80
2023/07/23 07:31:35;;;;;;;;;;;20.60;57.50;;;;;;5013655;28;19957;-79
2023/07/23 07:34:01;;;;;;;;;;;20.60;57.40;;;;;;4988986;28;19929;-80
2023/07/23 07:36:27;;;;;;;;;;;20.70;56.10;;;;;;4977412;28;19910;-80
2023/07/23 07:38:52;;;;;;;;;;;20.80;56.30;;;;;;4993813;28;20029;-80
2023/07/23 07:41:19;;;;;;;;;;;20.80;56.40;;;;;;4982556;28;21267;-79
2023/07/23 07:43:45;;;;;;;;;;;21.00;56.80;;;;;;4987710;28;20032;-80
2023/07/23 07:46:10;;;;;;;;;;;21.10;57.50;;;;;;4991293;28;20453;-80
2023/07/23 07:48:37;;;;;;;;;;;21.10;57.60;;;;;;5033885;28;19917;-81
2023/07/23 07:51:04;;;;;;;;;;;21.00;57.30;;;;;;5012117;28;19914;-80
2023/07/23 07:53:30;;;;;;;;;;;20.80;57.60;;;;;;4990999;28;19914;-80
2023/07/23 07:55:56;;;;;;;;;;;20.60;58.90;;;;;;4970623;28;20299;-79
2023/07/23 07:58:24;;;;;;;;;;;20.50;59.10;;;;;;4987159;28;20013;-78
2023/07/23 08:00:54;;;;;;;;;;;20.50;60.00;;;;;;4990260;28;19921;-79
2023/07/23 08:03:21;;;;;;;;;;;20.30;60.90;;;;;;4974360;28;20013;-80
2023/07/23 08:05:47;;;;;;;;;;;20.20;61.20;;;;;;4982737;28;19967;-79
2023/07/23 08:08:13;;;;;;;;;;;20.10;61.70;;;;;;4976051;28;19913;-79
2023/07/23 08:10:40;;;;;;;;;;;20.10;61.60;;;;;;5001246;28;19924;-80
2023/07/23 08:13:05;;;;;;;;;;;20.00;61.90;;;;;;4988570;28;19956;-80
2023/07/23 08:15:31;;;;;;;;;;;19.90;61.00;;;;;;4992611;28;20135;-80
2023/07/23 08:17:57;;;;;;;;;;;19.90;61.30;;;;;;4984523;28;19914;-80
2023/07/23 08:20:23;;;;;;;;;;;19.80;61.20;;;;;;4975892;28;19918;-80
2023/07/23 08:22:49;;;;;;;;;;;19.80;61.50;;;;;;4985019;28;19914;-78
2023/07/23 08:25:14;;;;;;;;;;;19.90;61.10;;;;;;4960934;28;20412;-79
2023/07/23 08:27:41;;;;;;;;;;;20.00;61.00;;;;;;5000074;28;19914;-78
2023/07/23 08:30:07;;;;;;;;;;;19.90;60.40;;;;;;4984708;28;19914;-79
2023/07/23 08:32:33;;;;;;;;;;;19.80;60.80;;;;;;4986460;28;19925;-80
2023/07/23 08:34:58;;;;;;;;;;;19.70;61.00;;;;;;4975466;28;19980;-80
2023/07/23 08:37:24;;;;;;;;;;;19.70;61.10;;;;;;4976261;28;19937;-80
2023/07/23 08:39:50;;;;;;;;;;;19.70;60.90;;;;;;4991957;28;19914;-79
2023/07/23 08:42:21;;;;;;;;;;;19.70;61.40;;;;;;4989825;28;20399;-78
2023/07/23 08:44:46;;;;;;;;;;;19.80;61.20;;;;;;5008311;28;19967;-79
2023/07/23 08:47:12;;;;;;;;;;;20.00;60.80;;;;;;4975605;28;19918;-80
2023/07/23 08:49:41;;;;;;;;;;;20.00;60.80;;;;;;4985465;28;19925;-80
2023/07/23 08:52:07;;;;;;;;;;;20.10;60.70;;;;;;4987640;28;19910;-81
2023/07/23 08:54:34;;;;;;;;;;;20.10;60.40;;;;;;4974397;28;19920;-81
2023/07/23 08:57:00;;;;;;;;;;;20.20;60.10;;;;;;4970662;28;19918;-80
2023/07/23 08:59:26;;;;;;;;;;;20.30;60.30;;;;;;4994551;28;20004;-80
2023/07/23 09:01:52;;;;;;;;;;;20.30;60.50;;;;;;4987792;28;19940;-79
2023/07/23 09:04:17;;;;;;;;;;;20.20;61.10;;;;;;4978490;28;20021;-80
2023/07/23 09:06:45;;;;;;;;;;;20.10;62.40;;;;;;4992912;28;19924;-78
2023/07/23 09:09:12;;;;;;;;;;;19.90;63.30;;;;;;4981566;28;19914;-79
2023/07/23 09:11:37;;;;;;;;;;;19.70;63.90;;;;;;4996822;28;19939;-79
2023/07/23 09:14:07;;;;;;;;;;;19.70;64.40;;;;;;4987831;28;19997;-80
2023/07/23 09:16:34;;;;;;;;;;;19.60;65.70;;;;;;4999818;28;19933;-79
2023/07/23 09:19:00;;;;;;;;;;;19.60;66.30;;;;;;4994019;28;19925;-78
2023/07/23 09:21:26;;;;;;;;;;;19.70;66.60;;;;;;4997586;28;19913;-78
2023/07/23 09:23:53;;;;;;;;;;;19.60;66.90;;;;;;4998507;28;19947;-78
2023/07/23 09:26:23;;;;;;;;;;;19.30;68.70;;;;;;4983311;28;19914;-79
2023/07/23 09:28:50;;;;;;;;;;;19.30;70.30;;;;;;4995221;22;19987;-86
2023/07/23 09:31:21;;;;;;;;;;;19.00;72.70;;;;;;4998470;28;19990;-87
2023/07/23 09:33:46;;;;;;;;;;;18.80;74.70;;;;;;4973146;28;20012;-86
2023/07/23 09:36:12;;;;;;;;;;;18.50;76.50;;;;;;4979216;28;20059;-87
2023/07/23 09:38:39;;;;;;;;;;;18.30;78.10;;;;;;4990897;28;20153;-87
2023/07/23 09:41:05;;;;;;;;;;;18.10;78.40;;;;;;4983217;28;19917;-88
2023/07/23 09:43:33;;;;;;;;;;;18.10;79.20;;;;;;4995271;28;20005;-87
2023/07/23 09:45:58;;;;;;;;;;;18.00;81.20;;;;;;4985175;28;19933;-87
2023/07/23 09:48:27;;;;;;;;;;;18.20;81.70;;;;;;4997939;28;19922;-88
2023/07/23 09:50:56;;;;;;;;;;;18.10;82.90;;;;;;4974761;28;19957;-88
2023/07/23 09:53:22;;;;;;;;;;;18.10;83.10;;;;;;5026089;28;19920;-88
2023/07/23 09:55:48;;;;;;;;;;;18.00;82.50;;;;;;4979095;28;19959;-88
2023/07/23 09:58:15;;;;;;;;;;;18.00;83.80;;;;;;4986533;28;19967;-87
2023/07/23 10:00:41;;;;;;;;;;;18.10;82.50;;;;;;5003022;28;19922;-88
2023/07/23 10:03:06;;;;;;;;;;;18.10;83.30;;;;;;4979423;28;19910;-88
2023/07/23 10:05:33;;;;;;;;;;;18.00;83.00;;;;;;4980631;28;19921;-87
2023/07/23 10:08:01;;;;;;;;;;;18.10;83.20;;;;;;5000400;28;19910;-88
2023/07/23 10:10:27;;;;;;;;;;;18.00;82.80;;;;;;4977811;28;19913;-88
2023/07/23 10:12:52;;;;;;;;;;;18.10;83.60;;;;;;5003021;28;19966;-87
2023/07/23 10:15:18;;;;;;;;;;;18.30;83.10;;;;;;4980313;28;19910;-88
2023/07/23 10:17:54;;;;;;;;;;;18.20;82.40;;;;;;4996092;28;20374;-88
2023/07/23 10:20:20;;;;;;;;;;;18.30;82.60;;;;;;4989341;28;19977;-88
2023/07/23 10:22:45;;;;;;;;;;;18.50;82.40;;;;;;4986414;28;19921;-88
2023/07/23 10:25:30;;;;;;;;;;;18.60;81.70;;;;;;4986017;28;19996;-89
2023/07/23 10:27:57;;;;;;;;;;;18.60;82.10;;;;;;5003540;27;19905;-89
2023/07/23 10:30:23;;;;;;;;;;;18.60;81.80;;;;;;5014182;28;19909;-87
2023/07/23 10:33:07;;;;;;;;;;;18.60;81.30;;;;;;5025323;27;19918;-88
2023/07/23 10:35:51;;;;;;;;;;;18.50;81.70;;;;;;5004490;28;19935;-87
2023/07/23 10:38:20;;;;;;;;;;;18.60;82.60;;;;;;5006769;28;19970;-87
2023/07/23 10:40:46;;;;;;;;;;;18.60;83.60;;;;;;4985161;28;19910;-87
2023/07/23 10:43:12;;;;;;;;;;;18.60;83.70;;;;;;4986337;28;19916;-87
2023/07/23 10:45:38;;;;;;;;;;;18.70;83.60;;;;;;5000573;28;19922;-88
2023/07/23 10:48:04;;;;;;;;;;;18.60;83.60;;;;;;5000264;28;19963;-88
2023/07/23 10:50:30;;;;;;;;;;;18.60;81.60;;;;;;4988447;28;19921;-89
2023/07/23 10:53:00;;;;;;;;;;;18.40;82.60;;;;;;5021065;28;19917;-88
2023/07/23 10:55:45;;;;;;;;;;;18.50;83.10;;;;;;5010923;28;19910;-88
2023/07/23 10:58:11;;;;;;;;;;;18.30;83.50;;;;;;5001892;28;19910;-87
2023/07/23 11:00:43;;;;;;;;;;;18.30;82.80;;;;;;4983610;28;19953;-87
2023/07/23 11:03:11;;;;;;;;;;;18.20;83.80;;;;;;4972669;28;19916;-87
2023/07/23 11:05:40;;;;;;;;;;;18.30;84.00;;;;;;5003463;28;19924;-88
2023/07/23 11:08:13;;;;;;;;;;;18.30;84.30;;;;;;4981397;28;19963;-89
2023/07/23 11:10:55;;;;;;;;;;;18.40;84.40;;;;;;4982678;28;19913;-87
2023/07/23 11:13:22;;;;;;;;;;;18.50;83.60;;;;;;4987361;28;19910;-87
2023/07/23 11:15:47;;;;;;;;;;;18.50;84.20;;;;;;5005897;28;19985;-84
2023/07/23 11:18:13;;;;;;;;;;;18.60;84.70;;;;;;4999752;28;19953;-87
2023/07/23 11:20:46;;;;;;;;;;;18.50;84.30;;;;;;4979729;28;19921;-87
2023/07/23 11:23:11;;;;;;;;;;;18.40;85.00;;;;;;4998219;28;19997;-87
2023/07/23 11:25:37;;;;;;;;;;;18.50;85.70;;;;;;4980832;28;19979;-88
2023/07/23 11:28:02;;;;;;;;;;;18.60;85.70;;;;;;4998455;28;19932;-88
2023/07/23 11:30:30;;;;;;;;;;;18.60;85.70;;;;;;4990241;28;20006;-89
2023/07/23 11:32:55;;;;;;;;;;;18.70;85.40;;;;;;4992127;28;19910;-88
2023/07/23 11:35:21;;;;;;;;;;;18.80;85.80;;;;;;4980985;28;19969;-88
2023/07/23 11:37:48;;;;;;;;;;;18.80;85.20;;;;;;4980826;28;19986;-88
2023/07/23 11:40:19;;;;;;;;;;;18.70;85.80;;;;;;4983039;28;20486;-89
2023/07/23 11:42:44;;;;;;;;;;;18.80;85.20;;;;;;4982453;28;19910;-88
2023/07/23 11:45:10;;;;;;;;;;;19.00;85.10;;;;;;4992223;28;20011;-87
2023/07/23 11:47:48;;;;;;;;;;;18.90;85.10;;;;;;4993869;28;19918;-87
2023/07/23 11:50:15;;;;;;;;;;;19.00;85.00;;;;;;4978917;28;19910;-89
2023/07/23 11:52:40;;;;;;;;;;;18.80;85.50;;;;;;4985811;28;19910;-90
2023/07/23 11:55:17;;;;;;;;;;;19.00;85.10;;;;;;4992074;28;19898;-93
2023/07/23 11:57:42;;;;;;;;;;;18.80;85.70;;;;;;4997169;28;19902;-94
2023/07/23 12:00:08;;;;;;;;;;;18.70;85.80;;;;;;4985632;28;19918;-92
2023/07/23 12:02:34;;;;;;;;;;;18.80;85.70;;;;;;4989565;28;19921;-91
2023/07/23 12:05:00;;;;;;;;;;;18.80;86.00;;;;;;4991797;28;19922;-91
2023/07/23 12:07:25;;;;;;;;;;;18.60;87.10;;;;;;4982935;28;19932;-90
2023/07/23 12:09:51;;;;;;;;;;;18.60;87.60;;;;;;5000175;28;19914;-91
2023/07/23 12:12:16;;;;;;;;;;;18.50;87.70;;;;;;4982654;28;19910;-91
2023/07/23 12:14:42;;;;;;;;;;;18.60;87.30;;;;;;4984014;28;19941;-91
2023/07/23 12:17:07;;;;;;;;;;;18.60;86.90;;;;;;4981305;28;19917;-91
2023/07/23 12:19:33;;;;;;;;;;;18.50;87.10;;;;;;4979348;28;20386;-90
2023/07/23 12:21:58;;;;;;;;;;;18.60;87.60;;;;;;4991583;28;20110;-91
2023/07/23 12:24:26;;;;;;;;;;;18.80;87.40;;;;;;4980448;28;19914;-90
2023/07/23 12:26:52;;;;;;;;;;;18.80;87.10;;;;;;4998427;28;20272;-90
2023/07/23 12:29:18;;;;;;;;;;;18.70;87.20;;;;;;4980213;28;19921;-91
2023/07/23 12:31:45;;;;;;;;;;;18.80;87.70;;;;;;4976451;28;20375;-91
2023/07/23 12:34:11;;;;;;;;;;;19.00;87.80;;;;;;4981003;28;19936;-89
2023/07/23 12:36:37;;;;;;;;;;;18.80;86.90;;;;;;4976305;28;19914;-90
2023/07/23 12:39:03;;;;;;;;;;;19.00;87.40;;;;;;4980718;28;19910;-90
2023/07/23 12:41:29;;;;;;;;;;;19.00;87.00;;;;;;4980480;28;20371;-89
2023/07/23 12:43:54;;;;;;;;;;;18.90;87.10;;;;;;4979242;28;19917;-89
2023/07/23 12:46:20;;;;;;;;;;;18.80;87.30;;;;;;5000006;28;19921;-90
2023/07/23 12:48:46;;;;;;;;;;;18.90;87.40;;;;;;5009215;28;20480;-92
2023/07/23 12:51:12;;;;;;;;;;;18.90;87.60;;;;;;4980797;28;19933;-90
2023/07/23 12:53:38;;;;;;;;;;;19.00;87.30;;;;;;4977314;28;20363;-90
2023/07/23 12:56:03;;;;;;;;;;;19.00;87.30;;;;;;4978014;28;19918;-89
2023/07/23 12:58:29;;;;;;;;;;;19.00;87.30;;;;;;4979317;28;19924;-89
2023/07/23 13:00:54;;;;;;;;;;;19.00;87.60;;;;;;4996211;28;19945;-90
2023/07/23 13:03:20;;;;;;;;;;;19.00;87.30;;;;;;5006298;28;19913;-90
2023/07/23 13:05:45;;;;;;;;;;;19.00;87.40;;;;;;4976761;28;19947;-90
2023/07/23 13:08:10;;;;;;;;;;;18.90;87.80;;;;;;4980071;28;19914;-88
2023/07/23 13:10:36;;;;;;;;;;;18.80;87.30;;;;;;5007822;28;19914;-90
2023/07/23 13:13:01;;;;;;;;;;;18.90;87.50;;;;;;5002489;28;20390;-91
2023/07/23 13:15:27;;;;;;;;;;;18.90;88.00;;;;;;4980372;28;19917;-90
2023/07/23 13:17:52;;;;;;;;;;;18.80;88.10;;;;;;4978765;28;19913;-89
2023/07/23 13:20:18;;;;;;;;;;;19.00;88.20;;;;;;4978592;28;20351;-90
2023/07/23 13:22:43;;;;;;;;;;;19.00;88.20;;;;;;4987301;28;20383;-89
2023/07/23 13:25:09;;;;;;;;;;;19.00;87.80;;;;;;4998620;28;19949;-91
2023/07/23 13:27:34;;;;;;;;;;;19.00;88.10;;;;;;4987597;28;19918;-89
2023/07/23 13:30:00;;;;;;;;;;;19.00;87.80;;;;;;4978814;28;19941;-90
2023/07/23 13:32:25;;;;;;;;;;;19.10;87.90;;;;;;4982939;28;20062;-90
2023/07/23 13:34:51;;;;;;;;;;;19.30;87.30;;;;;;4977056;28;19918;-90
2023/07/23 13:37:16;;;;;;;;;;;19.40;87.50;;;;;;4993853;28;20426;-91
2023/07/23 13:39:43;;;;;;;;;;;19.50;86.60;;;;;;4995758;28;19914;-89
2023/07/23 13:42:08;;;;;;;;;;;19.40;86.60;;;;;;4976966;28;19925;-92
2023/07/23 13:44:34;;;;;;;;;;;19.40;87.00;;;;;;4978083;28;19922;-91
2023/07/23 13:46:59;;;;;;;;;;;19.50;87.40;;;;;;4976960;28;19914;-90
2023/07/23 13:49:25;;;;;;;;;;;19.60;87.00;;;;;;4978926;28;19914;-90
2023/07/23 13:51:50;;;;;;;;;;;19.80;86.20;;;;;;4977881;28;19925;-90
2023/07/23 13:54:16;;;;;;;;;;;20.00;85.00;;;;;;4987918;28;19983;-91
2023/07/23 13:56:41;;;;;;;;;;;20.00;84.90;;;;;;4967081;28;19914;-91
2023/07/23 13:59:07;;;;;;;;;;;20.20;84.40;;;;;;4975548;28;20013;-93
2023/07/23 14:01:32;;;;;;;;;;;20.40;83.80;;;;;;4976893;28;19939;-90
2023/07/23 14:03:58;;;;;;;;;;;20.40;83.20;;;;;;4977470;28;19959;-90
2023/07/23 14:06:23;;;;;;;;;;;20.50;83.00;;;;;;4992265;28;19914;-92
2023/07/23 14:08:49;;;;;;;;;;;20.80;83.00;;;;;;4976495;28;19914;-91
2023/07/23 14:11:14;;;;;;;;;;;20.90;82.60;;;;;;4975461;28;19910;-91
2023/07/23 14:13:42;;;;;;;;;;;21.10;81.20;;;;;;4973492;28;20268;-88